Independence, Louisiana
Current Conditions -  °F | °C
As of 7:53 AM on Monday 22 Dec 2014 (Local Time) from KMCB Reporting Station
Moderate Fog Moderate Fog  
Wind Chill: 55°   Ceiling: 200
Heat Index: 55°   Visibility: 0.25mi
Dew Point: 55°   Wind: 6mph
Humidity: 100%   Direction: 150°SSE
Pressure: 29.84"   Gusts: NA
Location:  30.64°N, 90.5°W
Report Text: KMCB 221353Z AUTO 15005KT 1/4SM FG VV002 13/13 A2984 RMK AO2 SLP101 T01280128
Loading
Personal Weather Stations






























Interactive Weather Map New forecast layout! Learn more

10-Day Weather Forecast

Advertisements
Track Severe Weather on mobile